Time;durP1;ratioP1;P1;durP2;ratioP2;P2;SDS_P1;SDS_P2;PMS_P1;PMS_P2;Temp;Humidity;BMP_temperature;BMP_pressure;BME280_temperature;BME280_humidity;BME280_pressure;Samples;Min_cycle;Max_cycle;Signal;HPM_P1;HPM_P2
2022/06/18 00:02:18;;;;;;;7.70;2.00;;;24.50;54.00;;;;;;220170;1271;22566;-50
2022/06/18 00:07:22;;;;;;;6.20;2.00;;;24.50;53.90;;;;;;220045;1271;24327;-49
2022/06/18 00:17:50;;;;;;;4.30;1.60;;;24.50;54.00;;;;;;219742;1271;22982;-50
2022/06/18 00:22:59;;;;;;;12.50;2.80;;;24.50;54.00;;;;;;220185;1270;26562;-51
2022/06/18 00:28:07;;;;;;;5.80;1.80;;;24.50;54.00;;;;;;220156;1272;25393;-49
2022/06/18 00:33:09;;;;;;;5.30;2.00;;;24.50;54.00;;;;;;220269;1271;22548;-50
2022/06/18 00:38:19;;;;;;;4.90;2.00;;;24.50;53.90;;;;;;220011;1271;22693;-52
2022/06/18 00:43:27;;;;;;;1.90;1.50;;;24.50;53.90;;;;;;220073;1272;24444;-49
2022/06/18 00:48:38;;;;;;;3.20;1.80;;;24.50;54.00;;;;;;220134;1270;22550;-49
2022/06/18 00:54:09;;;;;;;;;;;24.50;54.00;;;;;;220047;1271;22628;-52
2022/06/18 00:59:37;;;;;;;5.50;2.20;;;24.50;54.10;;;;;;219740;1270;24240;-49
2022/06/18 01:04:40;;;;;;;5.00;1.60;;;24.50;54.00;;;;;;219814;1271;24283;-53
2022/06/18 01:09:46;;;;;;;2.40;1.50;;;24.50;54.00;;;;;;219974;1271;22766;-53
2022/06/18 01:14:52;;;;;;;4.90;1.80;;;24.40;54.00;;;;;;220001;1272;25530;-49
2022/06/18 01:19:55;;;;;;;3.00;1.70;;;24.40;54.00;;;;;;219474;1271;513763;-49
2022/06/18 01:24:58;;;;;;;4.30;2.00;;;24.40;54.00;;;;;;220033;1270;24368;-56
2022/06/18 01:30:07;;;;;;;2.40;1.70;;;24.40;54.00;;;;;;219928;1271;22779;-50
2022/06/18 01:35:13;;;;;;;2.50;1.50;;;24.40;54.00;;;;;;219992;1270;22835;-51
2022/06/18 01:40:55;;;;;;;4.50;1.90;;;24.40;54.00;;;;;;219813;1272;22547;-50
2022/06/18 01:46:01;;;;;;;2.30;1.50;;;24.40;54.00;;;;;;219824;1273;25681;-51
2022/06/18 01:51:19;;;;;;;5.10;1.80;;;24.40;54.00;;;;;;219701;1271;25574;-52
2022/06/18 01:56:34;;;;;;;2.70;1.90;;;24.40;54.00;;;;;;219987;1273;24503;-48
2022/06/18 02:01:40;;;;;;;2.50;1.50;;;24.40;54.00;;;;;;220234;1273;25250;-51
2022/06/18 02:06:44;;;;;;;5.20;1.90;;;24.30;53.90;;;;;;219791;1273;22541;-50
2022/06/18 02:11:47;;;;;;;10.70;2.40;;;24.30;53.90;;;;;;220090;1271;24869;-52
2022/06/18 02:16:51;;;;;;;4.30;1.70;;;24.30;54.00;;;;;;219981;1270;24750;-49
2022/06/18 02:21:57;;;;;;;4.60;1.80;;;24.30;54.00;;;;;;220030;1273;25335;-50
2022/06/18 02:26:59;;;;;;;5.70;2.00;;;24.30;54.00;;;;;;219849;1271;22560;-52
2022/06/18 02:32:05;;;;;;;8.20;2.30;;;24.30;54.00;;;;;;219681;1271;22551;-50
2022/06/18 02:37:21;;;;;;;3.10;1.90;;;24.30;54.00;;;;;;219767;1271;22568;-52
2022/06/18 02:42:27;;;;;;;4.80;2.30;;;24.30;54.00;;;;;;219987;1271;22595;-49
2022/06/18 02:47:29;;;;;;;2.80;1.60;;;24.30;54.00;;;;;;219855;1273;25921;-47
2022/06/18 02:52:36;;;;;;;3.10;1.60;;;24.30;53.60;;;;;;219944;1271;25326;-52
2022/06/18 02:57:40;;;;;;;2.60;1.70;;;24.30;54.00;;;;;;220090;1271;24394;-51
2022/06/18 03:02:44;;;;;;;4.30;1.90;;;24.30;54.00;;;;;;219898;1273;23010;-51
2022/06/18 03:07:46;;;;;;;2.40;1.70;;;24.30;54.00;;;;;;219973;1273;23684;-52
2022/06/18 03:12:49;;;;;;;3.70;1.70;;;24.30;54.00;;;;;;220006;1270;22588;-50
2022/06/18 03:17:52;;;;;;;2.90;1.90;;;24.30;54.00;;;;;;219983;1273;24261;-54
2022/06/18 03:22:55;;;;;;;3.00;2.00;;;24.30;54.00;;;;;;219855;1271;25271;-51
2022/06/18 03:27:57;;;;;;;2.90;1.70;;;24.20;54.00;;;;;;219824;1273;22566;-54
2022/06/18 03:33:01;;;;;;;3.00;1.90;;;24.20;54.00;;;;;;219897;1272;22548;-53
2022/06/18 03:38:03;;;;;;;4.70;2.20;;;24.30;54.00;;;;;;220041;1272;25431;-52
2022/06/18 03:43:06;;;;;;;5.10;2.10;;;24.20;53.50;;;;;;219938;1271;22766;-51
2022/06/18 03:48:18;;;;;;;4.20;2.00;;;24.20;54.00;;;;;;219850;1273;22578;-52
2022/06/18 03:53:22;;;;;;;4.40;2.00;;;24.20;53.90;;;;;;219799;1271;24248;-51
2022/06/18 03:58:24;;;;;;;3.50;2.10;;;24.20;54.00;;;;;;220056;1270;24243;-52
2022/06/18 04:03:26;;;;;;;2.10;1.50;;;24.20;53.90;;;;;;219855;1271;22699;-51
2022/06/18 04:08:29;;;;;;;2.40;2.00;;;24.20;53.90;;;;;;219898;1272;24013;-49
2022/06/18 04:13:39;;;;;;;2.50;1.70;;;24.20;53.90;;;;;;219976;1270;22532;-54
2022/06/18 04:18:55;;;;;;;4.00;1.90;;;24.20;53.90;;;;;;219958;1270;24853;-50
2022/06/18 04:23:58;;;;;;;2.30;1.50;;;24.20;53.90;;;;;;219904;1270;25470;-50
2022/06/18 04:29:01;;;;;;;3.50;2.00;;;24.30;54.30;;;;;;220063;1270;25658;-52
2022/06/18 04:34:04;;;;;;;2.60;1.70;;;24.20;53.50;;;;;;220188;1270;26491;-49
2022/06/18 04:39:31;;;;;;;3.00;1.70;;;24.30;54.00;;;;;;220016;1270;22572;-53
2022/06/18 04:45:00;;;;;;;2.30;1.60;;;24.20;53.90;;;;;;219785;1270;25330;-51
2022/06/18 04:50:38;;;;;;;3.40;1.80;;;24.20;54.20;;;;;;219891;1271;23921;-50
2022/06/18 04:55:56;;;;;;;3.30;2.00;;;24.20;54.10;;;;;;220003;1271;22606;-50
2022/06/18 05:01:00;;;;;;;7.10;2.50;;;24.20;53.80;;;;;;220084;1271;25387;-53
2022/06/18 05:06:35;;;;;;;2.60;1.60;;;24.20;54.10;;;;;;219618;1273;25385;-49
2022/06/18 05:11:56;;;;;;;4.70;2.10;;;24.20;54.50;;;;;;219996;1270;24243;-52
2022/06/18 05:17:26;;;;;;;3.00;1.90;;;24.20;53.80;;;;;;219805;1270;22550;-52
2022/06/18 05:22:28;;;;;;;3.70;1.80;;;24.20;53.80;;;;;;219953;1273;25293;-52
2022/06/18 05:27:38;;;;;;;2.80;1.70;;;24.30;53.90;;;;;;220072;1272;24821;-52
2022/06/18 05:32:55;;;;;;;2.60;1.80;;;24.20;53.80;;;;;;219744;1273;25461;-53
2022/06/18 05:37:59;;;;;;;2.70;1.70;;;24.30;53.90;;;;;;219855;1271;22640;-49
2022/06/18 05:43:01;;;;;;;1.90;1.50;;;24.30;54.10;;;;;;219783;1271;25423;-49
2022/06/18 05:48:05;;;;;;;2.10;1.50;;;24.30;53.80;;;;;;219860;1272;22562;-50
2022/06/18 05:53:10;;;;;;;3.50;1.60;;;24.30;53.80;;;;;;219961;1271;25366;-50
2022/06/18 05:58:28;;;;;;;2.80;1.70;;;24.30;53.50;;;;;;220133;1272;22637;-58
2022/06/18 06:03:38;;;;;;;2.60;2.00;;;24.30;53.80;;;;;;219892;1272;24720;-51
2022/06/18 06:08:41;;;;;;;2.20;1.50;;;24.30;53.80;;;;;;219837;1271;23935;-55
2022/06/18 06:13:43;;;;;;;3.30;1.80;;;24.30;54.10;;;;;;219985;1271;24210;-50
2022/06/18 06:18:46;;;;;;;3.70;1.80;;;24.30;53.80;;;;;;219910;1271;22850;-52
2022/06/18 06:23:52;;;;;;;3.40;1.60;;;24.30;53.80;;;;;;220075;1271;24266;-51
2022/06/18 06:28:55;;;;;;;3.00;1.80;;;24.30;53.80;;;;;;219976;1271;24237;-50
2022/06/18 06:34:01;;;;;;;2.70;1.70;;;24.30;53.80;;;;;;220087;1270;22714;-52
2022/06/18 06:39:03;;;;;;;2.30;1.50;;;24.30;53.80;;;;;;220100;1271;23062;-50
2022/06/18 06:44:05;;;;;;;2.60;1.70;;;24.40;54.10;;;;;;220064;1271;23570;-49
2022/06/18 06:49:08;;;;;;;3.00;1.90;;;24.40;53.80;;;;;;219957;1272;22699;-51
2022/06/18 06:54:11;;;;;;;2.30;1.80;;;24.40;54.40;;;;;;219832;1271;22567;-50
2022/06/18 06:59:17;;;;;;;3.30;1.70;;;24.40;53.60;;;;;;220227;1270;22577;-54
2022/06/18 07:04:20;;;;;;;5.00;2.20;;;24.40;53.60;;;;;;219934;1275;24317;-50
2022/06/18 07:09:22;;;;;;;4.00;1.90;;;24.40;53.60;;;;;;219908;1271;25355;-49
2022/06/18 07:14:25;;;;;;;3.60;2.00;;;24.40;53.90;;;;;;219959;1270;25623;-50
2022/06/18 07:19:27;;;;;;;2.30;1.50;;;24.50;53.60;;;;;;220037;1271;22591;-55
2022/06/18 07:24:29;;;;;;;2.40;1.60;;;24.40;53.50;;;;;;219857;1270;24236;-51
2022/06/18 07:29:34;;;;;;;3.30;1.80;;;24.50;53.60;;;;;;219800;1273;25792;-49
2022/06/18 07:34:37;;;;;;;2.40;1.60;;;24.50;53.10;;;;;;220006;1270;22548;-52
2022/06/18 07:39:48;;;;;;;2.40;1.60;;;24.50;53.50;;;;;;220044;1272;25487;-51
2022/06/18 07:45:22;;;;;;;3.50;2.00;;;24.50;53.40;;;;;;220114;1270;25364;-49
2022/06/18 07:50:24;;;;;;;3.00;2.00;;;24.60;53.00;;;;;;219835;1271;24271;-50
2022/06/18 07:55:30;;;;;;;2.60;1.70;;;24.60;53.40;;;;;;220141;1271;24288;-48
2022/06/18 08:00:35;;;;;;;3.20;1.80;;;24.60;53.70;;;;;;219975;1271;25368;-49
2022/06/18 08:05:52;;;;;;;3.00;1.70;;;24.60;53.70;;;;;;220052;1271;24816;-52
2022/06/18 08:11:19;;;;;;;2.90;1.90;;;24.60;53.80;;;;;;220066;1271;24958;-48
2022/06/18 08:16:30;;;;;;;7.00;2.50;;;24.70;53.30;;;;;;219990;1271;22580;-51
2022/06/18 08:22:03;;;;;;;4.30;2.00;;;24.70;53.30;;;;;;220032;1271;24769;-49
2022/06/18 08:27:10;;;;;;;2.20;1.70;;;24.70;53.30;;;;;;220043;1272;23164;-50
2022/06/18 08:32:18;;;;;;;2.60;1.70;;;24.70;53.80;;;;;;219866;1273;25085;-47
2022/06/18 08:37:23;;;;;;;2.90;1.90;;;24.70;53.20;;;;;;219629;1271;22573;-48
2022/06/18 08:43:03;;;;;;;2.50;1.60;;;24.70;53.20;;;;;;220028;1271;24358;-49
2022/06/18 08:48:20;;;;;;;4.80;1.70;;;24.70;53.20;;;;;;219898;1271;22558;-48
2022/06/18 08:53:55;;;;;;;2.90;1.90;;;24.70;53.10;;;;;;219817;1271;22706;-57
2022/06/18 08:59:36;;;;;;;2.20;1.50;;;24.80;53.00;;;;;;219940;1272;25276;-50
2022/06/18 09:05:01;;;;;;;4.30;1.80;;;24.80;53.10;;;;;;219739;1272;25393;-50
2022/06/18 09:10:42;;;;;;;3.70;1.70;;;24.80;53.00;;;;;;219748;1271;22861;-49
2022/06/18 09:15:56;;;;;;;2.80;1.80;;;24.90;53.30;;;;;;220022;1271;22543;-49
2022/06/18 09:21:03;;;;;;;2.50;1.70;;;24.90;53.00;;;;;;219924;1271;25504;-51
2022/06/18 09:26:12;;;;;;;3.30;1.80;;;24.90;53.10;;;;;;219562;1271;22563;-48
2022/06/18 09:31:27;;;;;;;3.00;1.60;;;24.90;52.80;;;;;;220128;1271;24067;-49
2022/06/18 09:37:08;;;;;;;4.10;1.80;;;24.90;52.90;;;;;;219975;1271;24401;-48
2022/06/18 09:42:22;;;;;;;5.20;2.00;;;24.90;53.10;;;;;;219791;1271;22588;-51
2022/06/18 09:47:47;;;;;;;4.30;1.70;;;25.00;52.80;;;;;;219808;1271;22709;-47
2022/06/18 09:53:48;;;;;;;3.60;1.50;;;25.00;52.70;;;;;;219687;1271;22629;-50
2022/06/18 09:59:13;;;;;;;2.10;1.40;;;25.00;52.70;;;;;;219924;1271;22541;-51
2022/06/18 10:09:54;;;;;;;2.40;1.40;;;25.00;52.40;;;;;;220112;1271;25274;-47
2022/06/18 10:15:09;;;;;;;3.00;1.90;;;25.10;52.60;;;;;;219994;1270;24179;-52
2022/06/18 10:20:21;;;;;;;3.20;1.70;;;25.10;52.60;;;;;;220057;1271;25354;-48
2022/06/18 10:25:36;;;;;;;6.20;2.10;;;25.10;52.10;;;;;;220069;1270;22542;-48
2022/06/18 10:31:05;;;;;;;5.30;1.90;;;25.10;52.50;;;;;;220089;1272;24177;-48
2022/06/18 10:36:26;;;;;;;2.50;1.60;;;25.20;52.50;;;;;;219636;1271;25434;-48
2022/06/18 10:42:05;;;;;;;4.30;1.80;;;25.20;52.00;;;;;;220150;1272;23931;-49
2022/06/18 10:47:17;;;;;;;3.90;1.90;;;25.20;52.40;;;;;;220096;1271;22593;-50
2022/06/18 10:52:25;;;;;;;2.20;1.50;;;25.30;52.50;;;;;;220143;1272;24379;-47
2022/06/18 10:57:30;;;;;;;2.00;1.50;;;25.30;52.90;;;;;;219857;1271;22778;-50
2022/06/18 11:02:38;;;;;;;2.50;1.40;;;25.30;52.50;;;;;;219969;1271;26043;-50
2022/06/18 11:07:52;;;;;;;2.70;1.50;;;25.40;53.30;;;;;;220071;1271;22583;-52
2022/06/18 11:13:19;;;;;;;2.20;1.50;;;25.40;52.50;;;;;;220106;1271;25267;-50
2022/06/18 11:19:15;;;;;;;;;;;;;;;;;;;;;
2022/06/18 11:24:38;;;;;;;2.20;1.30;;;25.40;52.50;;;;;;220091;1270;22687;-53
2022/06/18 11:30:20;;;;;;;3.50;1.80;;;25.40;52.40;;;;;;220002;1270;22564;-50
2022/06/18 11:35:33;;;;;;;3.10;1.70;;;25.40;52.00;;;;;;220009;1271;22563;-48
2022/06/18 11:41:01;;;;;;;2.40;1.80;;;25.50;52.40;;;;;;219932;1271;24236;-47
2022/06/18 11:46:20;;;;;;;3.40;1.80;;;25.50;52.30;;;;;;220002;1270;22717;-54
2022/06/18 11:51:36;;;;;;;1.90;1.50;;;25.50;52.30;;;;;;219830;1271;23152;-51
2022/06/18 11:56:48;;;;;;;3.40;1.70;;;25.60;52.30;;;;;;219840;1271;23970;-47
2022/06/18 12:02:09;;;;;;;2.10;1.60;;;25.50;52.30;;;;;;220022;1271;22538;-54
2022/06/18 12:07:40;;;;;;;3.30;1.80;;;25.60;52.30;;;;;;219896;1271;22550;-51
2022/06/18 12:13:03;;;;;;;3.50;1.60;;;25.60;52.20;;;;;;219995;1271;22635;-48
2022/06/18 12:18:32;;;;;;;3.00;1.70;;;25.60;52.60;;;;;;220183;1271;22573;-49
2022/06/18 12:24:20;;;;;;;4.40;2.00;;;25.60;52.30;;;;;;219734;1271;24233;-47
2022/06/18 12:29:54;;;;;;;4.10;2.00;;;25.70;52.40;;;;;;219908;1271;25332;-49
2022/06/18 12:35:30;;;;;;;2.40;1.60;;;25.60;52.40;;;;;;219872;1271;22731;-50
2022/06/18 12:41:15;;;;;;;2.30;1.60;;;25.70;52.50;;;;;;219784;1271;22826;-52
2022/06/18 12:46:46;;;;;;;2.10;1.40;;;25.70;52.40;;;;;;220097;1271;22723;-48
2022/06/18 12:52:13;;;;;;;2.70;1.60;;;25.70;52.40;;;;;;220040;1271;24245;-47
2022/06/18 12:58:02;;;;;;;;;;;;;;;;;;;;;
2022/06/18 13:03:54;;;;;;;3.40;1.80;;;25.70;52.50;;;;;;219881;1270;25428;-49
2022/06/18 13:09:12;;;;;;;4.00;1.80;;;25.70;52.40;;;;;;220108;1271;24438;-48
2022/06/18 13:14:53;;;;;;;5.70;2.00;;;25.70;52.40;;;;;;220085;1270;22711;-51
2022/06/18 13:20:28;;;;;;;4.30;1.80;;;25.80;52.50;;;;;;219598;1270;629607;-48
2022/06/18 13:31:29;;;;;;;2.10;1.60;;;25.80;52.50;;;;;;219920;1271;23161;-49
2022/06/18 13:37:06;;;;;;;3.50;1.40;;;25.80;52.50;;;;;;219943;1271;22560;-50
2022/06/18 13:42:41;;;;;;;3.20;1.80;;;25.80;52.40;;;;;;219901;1270;22551;-49
2022/06/18 13:48:45;;;;;;;3.20;1.70;;;25.80;52.40;;;;;;220026;1270;23124;-47
2022/06/18 13:54:17;;;;;;;2.10;1.50;;;25.80;52.50;;;;;;220090;1270;22712;-54
2022/06/18 13:59:23;;;;;;;2.00;1.50;;;25.90;52.60;;;;;;220010;1270;22608;-50
2022/06/18 14:05:16;;;;;;;3.10;1.80;;;25.80;52.40;;;;;;219930;1270;22559;-49
2022/06/18 14:10:50;;;;;;;2.00;1.50;;;25.90;52.60;;;;;;219906;1270;24547;-49
2022/06/18 14:16:04;;;;;;;4.80;2.00;;;25.90;52.50;;;;;;220022;1270;25268;-49
2022/06/18 14:21:24;;;;;;;4.60;2.10;;;25.90;52.50;;;;;;220000;1272;24365;-52
2022/06/18 14:26:47;;;;;;;4.50;2.10;;;25.90;52.50;;;;;;220229;1272;22576;-49
2022/06/18 14:32:34;;;;;;;3.60;2.00;;;25.90;52.50;;;;;;219807;1271;24740;-48
2022/06/18 14:37:42;;;;;;;2.20;1.50;;;25.90;52.50;;;;;;220044;1271;22596;-48
2022/06/18 14:42:44;;;;;;;4.00;1.90;;;25.90;52.50;;;;;;219937;1270;22719;-49
2022/06/18 14:48:03;;;;;;;2.80;1.70;;;26.00;52.60;;;;;;220051;1271;22583;-49
2022/06/18 14:53:35;;;;;;;5.00;1.70;;;26.00;52.60;;;;;;220010;1270;22541;-48
2022/06/18 14:59:19;;;;;;;2.60;1.50;;;25.90;52.60;;;;;;219893;1271;25291;-47
2022/06/18 15:04:47;;;;;;;2.10;1.50;;;26.00;52.70;;;;;;219600;1271;22561;-48
2022/06/18 15:09:51;;;;;;;1.90;1.40;;;26.00;52.60;;;;;;219689;1271;22572;-48
2022/06/18 15:14:58;;;;;;;1.90;1.40;;;26.00;52.80;;;;;;219749;1270;24302;-50
2022/06/18 15:25:23;;;;;;;4.40;1.80;;;26.00;52.60;;;;;;219885;1271;22663;-50
2022/06/18 15:30:46;;;;;;;4.80;1.90;;;26.00;53.00;;;;;;220095;1270;26550;-48
2022/06/18 15:36:25;;;;;;;4.20;1.90;;;26.00;52.80;;;;;;220119;1271;22561;-50
2022/06/18 15:41:52;;;;;;;1.70;1.20;;;26.00;52.60;;;;;;220013;1271;25896;-49
2022/06/18 15:47:06;;;;;;;2.80;1.60;;;26.00;52.20;;;;;;219792;1271;25277;-52
2022/06/18 15:52:19;;;;;;;;;;;26.00;52.60;;;;;;219888;1271;25462;-48
2022/06/18 15:57:24;;;;;;;2.00;1.40;;;26.00;53.00;;;;;;219938;1271;22580;-49
2022/06/18 16:02:28;;;;;;;3.10;1.80;;;26.00;52.70;;;;;;220065;1271;22554;-49
2022/06/18 16:07:57;;;;;;;1.90;1.40;;;26.00;52.70;;;;;;219945;1270;22588;-49
2022/06/18 16:13:05;;;;;;;1.80;1.40;;;26.00;52.60;;;;;;219987;1271;22779;-48
2022/06/18 16:18:34;;;;;;;2.60;1.70;;;26.00;52.60;;;;;;219809;1271;24285;-49
2022/06/18 16:23:40;;;;;;;2.80;1.70;;;26.00;52.60;;;;;;219908;1271;24236;-48
2022/06/18 16:28:42;;;;;;;3.00;1.70;;;26.00;52.70;;;;;;220021;1270;23984;-49
2022/06/18 16:33:51;;;;;;;1.80;1.40;;;26.00;52.80;;;;;;219646;1271;22576;-48
2022/06/18 16:38:56;;;;;;;2.20;1.60;;;26.10;52.70;;;;;;219701;1271;24252;-49
2022/06/18 16:43:58;;;;;;;2.10;1.60;;;26.00;52.70;;;;;;219860;1270;22563;-49
2022/06/18 16:49:01;;;;;;;1.90;1.50;;;26.00;52.80;;;;;;219956;1270;25382;-50
2022/06/18 16:54:16;;;;;;;3.10;1.90;;;26.00;53.10;;;;;;219911;1271;22711;-52
2022/06/18 16:59:19;;;;;;;2.60;1.60;;;26.00;53.40;;;;;;219874;1271;22551;-48
2022/06/18 17:04:24;;;;;;;2.40;1.40;;;26.00;52.90;;;;;;219936;1271;24847;-52
2022/06/18 17:09:28;;;;;;;2.90;1.60;;;26.00;52.90;;;;;;219851;1271;22744;-49
2022/06/18 17:14:31;;;;;;;3.00;1.60;;;26.10;52.90;;;;;;219761;1271;22717;-47
2022/06/18 17:19:33;;;;;;;2.60;1.60;;;26.10;52.90;;;;;;219801;1271;24092;-47
2022/06/18 17:35:50;;;;;;;4.40;2.30;;;26.10;52.90;;;;;;220101;1270;25379;-49
2022/06/18 17:41:05;;;;;;;3.50;1.70;;;26.00;52.80;;;;;;219831;1271;22606;-46
2022/06/18 17:46:13;;;;;;;4.20;2.10;;;26.10;52.90;;;;;;219862;1271;22586;-52
2022/06/18 17:51:18;;;;;;;2.70;1.50;;;26.00;52.70;;;;;;219974;1271;25245;-48
2022/06/18 17:56:26;;;;;;;2.10;1.50;;;26.10;52.80;;;;;;219864;1271;22639;-51
2022/06/18 18:01:37;;;;;;;2.60;1.70;;;26.10;52.70;;;;;;219794;1271;23928;-51
2022/06/18 18:06:40;;;;;;;3.90;1.60;;;26.10;53.00;;;;;;219863;1271;25494;-48
2022/06/18 18:11:43;;;;;;;1.80;1.40;;;26.10;52.70;;;;;;219878;1271;22565;-52
2022/06/18 18:16:47;;;;;;;2.40;1.70;;;26.10;52.70;;;;;;219885;1271;22571;-47
2022/06/18 18:21:50;;;;;;;2.30;1.60;;;26.00;52.70;;;;;;219848;1270;24286;-49
2022/06/18 18:27:04;;;;;;;2.10;1.60;;;26.00;52.80;;;;;;219699;1271;23182;-47
2022/06/18 18:32:09;;;;;;;1.90;1.40;;;26.00;52.80;;;;;;219817;1271;23077;-47
2022/06/18 18:37:12;;;;;;;4.70;1.90;;;26.00;52.80;;;;;;219806;1271;22647;-48
2022/06/18 18:42:16;;;;;;;2.80;1.60;;;26.00;52.80;;;;;;219951;1270;24255;-50
2022/06/18 18:47:20;;;;;;;3.50;1.70;;;26.00;53.10;;;;;;219857;1271;22535;-52
2022/06/18 18:52:22;;;;;;;3.00;1.60;;;26.00;52.80;;;;;;220072;1270;24276;-49
2022/06/18 18:57:24;;;;;;;1.90;1.40;;;26.00;52.90;;;;;;219901;1271;25331;-50
2022/06/18 19:02:27;;;;;;;3.80;1.80;;;26.00;52.90;;;;;;220028;1271;22562;-48
2022/06/18 19:07:30;;;;;;;2.10;1.40;;;26.00;52.90;;;;;;220037;1272;22715;-50
2022/06/18 19:17:54;;;;;;;4.80;2.00;;;26.00;53.30;;;;;;220273;1270;22846;-48
2022/06/18 19:22:56;;;;;;;2.80;1.60;;;26.00;53.00;;;;;;219979;1270;22749;-48
2022/06/18 19:28:00;;;;;;;2.70;1.60;;;26.00;53.00;;;;;;220008;1270;25247;-47
2022/06/18 19:33:05;;;;;;;4.90;2.10;;;26.00;53.10;;;;;;220039;1270;24286;-51
2022/06/18 19:38:09;;;;;;;7.30;2.10;;;26.00;53.10;;;;;;219891;1270;22554;-49
2022/06/18 19:43:24;;;;;;;2.00;1.50;;;26.00;53.20;;;;;;219914;1270;22573;-53
2022/06/18 19:48:38;;;;;;;5.30;2.00;;;26.00;53.10;;;;;;220030;1270;24291;-54
2022/06/18 19:53:58;;;;;;;2.30;1.50;;;26.00;53.10;;;;;;219976;1270;23078;-54
2022/06/18 19:59:09;;;;;;;2.20;1.40;;;26.00;53.10;;;;;;220019;1270;22555;-53
2022/06/18 20:04:24;;;;;;;2.00;1.50;;;25.90;53.10;;;;;;219934;1270;24249;-53
2022/06/18 20:09:38;;;;;;;2.40;1.70;;;25.90;53.10;;;;;;220030;1270;25491;-54
2022/06/18 20:14:48;;;;;;;8.70;2.20;;;25.90;53.10;;;;;;220051;1270;24328;-54
2022/06/18 20:20:10;;;;;;;1.90;1.50;;;25.90;53.40;;;;;;220062;1270;24232;-55
2022/06/18 20:25:19;;;;;;;2.30;1.50;;;25.90;53.10;;;;;;220089;1270;22586;-54
2022/06/18 20:30:34;;;;;;;6.10;1.80;;;25.90;53.20;;;;;;219994;1271;22563;-54
2022/06/18 20:35:46;;;;;;;3.90;1.70;;;25.90;53.20;;;;;;219893;1271;22556;-53
2022/06/18 20:40:58;;;;;;;3.40;1.70;;;25.90;53.20;;;;;;219877;1271;25278;-55
2022/06/18 20:46:04;;;;;;;;;;;25.90;53.20;;;;;;220064;1271;23173;-57
2022/06/18 20:51:10;;;;;;;2.90;1.40;;;25.90;53.20;;;;;;220174;1270;25424;-52
2022/06/18 21:02:07;;;;;;;7.00;2.40;;;25.90;53.20;;;;;;220257;1270;22541;-53
2022/06/18 21:07:20;;;;;;;5.00;1.90;;;25.80;53.20;;;;;;219977;1271;22757;-54
2022/06/18 21:12:35;;;;;;;2.60;1.70;;;25.90;53.20;;;;;;220111;1271;22602;-54
2022/06/18 21:17:39;;;;;;;3.80;1.70;;;25.90;53.30;;;;;;220025;1273;24249;-54
2022/06/18 21:22:54;;;;;;;2.60;1.60;;;25.90;53.30;;;;;;219893;1273;23934;-53
2022/06/18 21:28:41;;;;;;;4.00;1.80;;;25.80;53.30;;;;;;219906;1273;24338;-57
2022/06/18 21:39:13;;;;;;;4.80;1.80;;;25.80;53.40;;;;;;219865;1271;25116;-55
2022/06/18 21:44:29;;;;;;;2.70;1.80;;;25.80;53.40;;;;;;219929;1271;24423;-54
2022/06/18 21:49:35;;;;;;;3.40;1.80;;;25.80;53.40;;;;;;220035;1273;26512;-55
2022/06/18 21:54:38;;;;;;;2.10;1.50;;;25.80;53.40;;;;;;220001;1271;24368;-56
2022/06/18 21:59:50;;;;;;;3.10;1.70;;;25.80;53.50;;;;;;220018;1272;22541;-56
2022/06/18 22:05:00;;;;;;;3.50;1.90;;;25.80;53.50;;;;;;219735;1272;25220;-55
2022/06/18 22:10:16;;;;;;;2.80;1.50;;;25.80;53.50;;;;;;220086;1270;25534;-56
2022/06/18 22:21:07;;;;;;;4.20;1.70;;;25.80;54.00;;;;;;220092;1271;22698;-53
2022/06/18 22:26:13;;;;;;;3.50;2.00;;;25.80;53.60;;;;;;220119;1270;22558;-55
2022/06/18 22:31:27;;;;;;;2.60;1.60;;;25.80;53.60;;;;;;220170;1270;22557;-53
2022/06/18 22:36:56;;;;;;;2.20;1.50;;;25.80;53.60;;;;;;220037;1270;22768;-54
2022/06/18 22:42:04;;;;;;;3.40;1.80;;;25.80;53.60;;;;;;219870;1273;22653;-53
2022/06/18 22:47:11;;;;;;;3.80;1.90;;;25.80;53.70;;;;;;220037;1270;25491;-52
2022/06/18 22:52:18;;;;;;;3.10;1.70;;;25.70;54.00;;;;;;220094;1271;22822;-54
2022/06/18 22:57:27;;;;;;;2.70;1.80;;;25.70;53.70;;;;;;219986;1270;22563;-54
2022/06/18 23:02:34;;;;;;;2.10;1.40;;;25.70;53.70;;;;;;220097;1270;22577;-52
2022/06/18 23:07:39;;;;;;;2.80;1.60;;;25.70;53.80;;;;;;220063;1270;22543;-56
2022/06/18 23:12:42;;;;;;;2.50;1.70;;;25.70;53.80;;;;;;219936;1272;26723;-54
2022/06/18 23:17:45;;;;;;;5.00;2.00;;;25.70;54.20;;;;;;219951;1272;22547;-55
2022/06/18 23:22:48;;;;;;;2.40;1.60;;;25.70;53.90;;;;;;219996;1272;25453;-52
2022/06/18 23:27:50;;;;;;;3.00;1.70;;;25.70;54.30;;;;;;219946;1270;23169;-53
2022/06/18 23:32:58;;;;;;;4.10;1.60;;;25.70;53.90;;;;;;219948;1270;23073;-57
2022/06/18 23:38:00;;;;;;;4.10;1.70;;;25.70;54.00;;;;;;220081;1273;24323;-54
2022/06/18 23:43:03;;;;;;;2.60;1.70;;;25.60;53.90;;;;;;220020;1273;24323;-54
2022/06/18 23:48:06;;;;;;;2.10;1.40;;;25.70;54.00;;;;;;220057;1270;24253;-54
2022/06/18 23:53:13;;;;;;;2.40;1.70;;;25.70;54.10;;;;;;219988;1272;24278;-56
2022/06/18 23:58:18;;;;;;;2.10;1.50;;;25.70;54.10;;;;;;220127;1271;24270;-53
